Latest Weather Observations for Gabo Island

IDN60801

Issued at 7:35 am EST Saturday 20 September 2014 (issued every 30 minutes, with the page automatically refreshed every 10 minutes)

About weather observations | Map of weather stations | Latest weather observations for NSW | Other Formats
Station Details ID: 084016 Name: GABO ISLAND LIGHTHOUSE Lat: -37.57 Lon: 149.92 Height: 15.2 m
Data from the previous 72 hours. | See also: Recent months at Gabo Island
Date/Time
EST
Temp
°C
App
Temp
°C
Dew
Point
Rel
Hum
%
Delta-T
°C
Wind Press
QNH
hPa
Press
MSL
hPa
Rain
since 9 am
mm
Dir
 
Spd
km/h
Gust
km/h
Spd
kts
Gust
kts
20/07:30am 11.8 3.7 7.0 72 2.3 W 39 48 21 26 1023.6 - 0.0
20/07:00am 11.9 3.0 6.9 71 2.4 W 43 52 23 28 1023.1 - 0.0
20/06:30am 11.5 3.9 7.6 77 1.9 W 37 44 20 24 1022.9 - 0.0
20/06:00am 11.5 2.7 7.3 75 2.0 W 43 56 23 30 1022.6 1022.6 0.0
20/05:30am 11.4 3.3 7.0 74 2.1 W 39 48 21 26 1022.4 - 0.0
20/05:00am 11.5 3.5 7.6 77 1.9 WSW 39 48 21 26 1021.9 - 0.0
20/04:30am 11.3 2.5 7.3 76 1.9 W 43 54 23 29 1021.4 - 0.0
20/04:00am 11.3 2.7 6.6 73 2.2 W 41 50 22 27 1021.2 - 0.0
20/03:30am 11.3 2.8 6.9 74 2.1 W 41 52 22 28 1021.2 - 0.0
20/03:00am 11.6 2.6 7.2 74 2.1 W 44 54 24 29 1020.9 1020.8 0.0
20/02:30am 11.6 2.7 7.0 73 2.2 WSW 43 54 23 29 1021.0 - 0.0
20/02:00am 11.7 2.7 7.1 73 2.2 WSW 44 54 24 29 1021.0 - 0.0
20/01:30am 11.6 2.7 6.7 72 2.3 W 43 54 23 29 1021.0 - 0.0
20/01:00am 12.1 2.6 6.9 70 2.5 WSW 46 57 25 31 1021.1 - 0.0
20/12:30am 12.4 2.6 7.2 70 2.5 WSW 48 59 26 32 1020.9 - 0.0
20/12:13am 12.4 3.0 7.2 70 2.5 WSW 46 65 25 35 1020.8 - 0.0
20/12:00am 12.6 3.3 7.4 70 2.5 WSW 46 61 25 33 1020.7 1020.8 0.0
 
Date/Time
EST
Temp
°C
App
Temp
°C
Dew
Point
Rel
Hum
%
Delta-T
°C
Wind Press
QNH
hPa
Press
MSL
hPa
Rain
since 9 am
mm
Dir
 
Spd
km/h
Gust
km/h
Spd
kts
Gust
kts
19/11:30pm 12.7 3.0 7.3 69 2.6 WSW 48 59 26 32 1020.6 - 0.0
19/11:00pm 12.7 2.2 7.3 69 2.6 WSW 52 69 28 37 1020.8 - 0.0
19/10:53pm 12.6 2.7 6.5 66 2.9 WSW 48 69 26 37 1020.7 - 0.0
19/10:30pm 12.9 3.2 7.6 70 2.6 WSW 48 65 26 35 1020.8 - 0.0
19/10:00pm 12.9 3.1 6.9 67 2.9 WSW 48 61 26 33 1020.7 - 0.0
19/09:30pm 13.0 3.5 6.7 65 3.0 WSW 46 65 25 35 1020.6 - 0.0
19/09:00pm 13.1 5.3 8.2 72 2.4 WSW 39 46 21 25 1020.6 1020.7 0.0
19/08:30pm 13.1 4.5 8.0 71 2.5 WSW 43 52 23 28 1020.6 - 0.0
19/08:00pm 12.9 4.7 8.0 72 2.4 WSW 41 50 22 27 1020.7 - 0.0
19/07:30pm 12.9 4.7 8.0 72 2.4 WSW 41 54 22 29 1020.4 - 0.0
19/07:00pm 13.2 3.6 8.1 71 2.5 WSW 48 59 26 32 1020.2 - 0.0
19/06:30pm 13.1 4.2 7.8 70 2.6 WSW 44 59 24 32 1020.0 - 0.0
19/06:00pm 13.2 3.9 7.7 69 2.7 WSW 46 57 25 31 1019.7 1019.8 0.0
19/05:30pm 13.5 4.3 7.8 68 2.8 WSW 46 61 25 33 1019.6 - 0.0
19/05:00pm 13.9 4.5 7.1 63 3.3 WSW 46 56 25 30 1019.4 - 0.0
19/04:34pm 14.1 4.0 7.4 64 3.3 WSW 50 69 27 37 1019.2 - 0.0
19/04:30pm 14.0 3.1 7.2 63 3.3 WSW 54 69 29 37 1019.1 - 0.0
19/04:00pm 14.2 4.0 7.0 62 3.5 WSW 50 61 27 33 1018.9 - 0.0
19/03:30pm 14.6 4.0 6.8 59 3.8 SW 52 65 28 35 1018.8 - 0.0
19/03:06pm 14.7 4.7 7.9 63 3.4 SW 50 69 27 37 1018.8 - 0.0
19/03:00pm 14.7 3.3 6.6 58 3.9 WSW 56 69 30 37 1018.8 1018.7 0.0
19/02:30pm 14.7 3.7 6.6 58 3.9 SW 54 65 29 35 1018.7 - 0.0
19/02:00pm 15.2 4.9 6.3 55 4.3 WSW 50 59 27 32 1018.8 - 0.0
19/01:30pm 15.4 4.6 5.8 52 4.6 WSW 52 67 28 36 1018.8 - 0.0
19/01:00pm 15.1 4.4 6.4 56 4.2 WSW 52 69 28 37 1019.0 - 0.0
19/12:30pm 14.8 3.7 6.5 57 4.0 WSW 54 65 29 35 1019.2 - 0.0
19/12:00pm 14.9 3.8 6.4 57 4.1 WSW 54 65 29 35 1019.5 1019.5 0.0
19/11:44am 14.7 5.5 7.8 63 3.4 WSW 46 65 25 35 1019.6 - 0.0
19/11:30am 14.9 4.1 5.9 55 4.3 WSW 52 67 28 36 1019.7 - 0.0
19/11:00am 14.3 5.0 5.9 57 4.0 WSW 44 54 24 29 1020.0 - 0.0
19/10:30am 14.4 4.9 6.5 59 3.8 WSW 46 59 25 32 1020.0 - 0.0
19/10:00am 13.7 4.2 6.9 63 3.3 WSW 46 65 25 35 1020.1 - 0.0
19/09:58am 13.3 3.6 5.9 61 3.5 WSW 46 65 25 35 1020.1 - 0.0
19/09:30am 13.7 4.3 5.4 57 3.9 W 44 57 24 31 1020.1 - 0.0
19/09:00am 13.3 4.0 5.9 61 3.5 W 44 59 24 32 1020.3 1020.3 0.4
19/08:30am 12.6 3.1 5.0 60 3.5 W 44 56 24 30 1020.2 - 0.4
19/08:00am 12.2 3.3 5.3 62 3.2 W 41 50 22 27 1020.0 - 0.4
19/07:46am 11.8 2.4 4.5 61 3.3 W 43 63 23 34 1019.9 - 0.4
19/07:30am 11.3 1.8 3.9 60 3.3 W 43 54 23 29 1019.9 - 0.4
19/07:00am 10.5 1.1 4.2 65 2.8 W 43 57 23 31 1019.8 - 0.4
19/06:30am 10.4 0.3 3.5 62 3.0 W 46 57 25 31 1019.7 - 0.4
19/06:00am 10.3 0.1 3.1 61 3.1 W 46 57 25 31 1019.4 1019.4 0.4
19/05:30am 10.3 0.1 3.4 62 3.0 W 46 63 25 34 1019.2 - 0.4
19/05:00am 10.1 0.3 3.2 62 3.0 W 44 59 24 32 1019.1 - 0.4
19/04:30am 10.5 1.1 4.2 65 2.8 W 43 54 23 29 1019.2 - 0.4
19/04:00am 10.4 0.7 3.8 63 2.9 W 44 57 24 31 1019.1 - 0.4
19/03:30am 10.1 0.9 3.7 64 2.8 W 41 54 22 29 1019.0 - 0.4
19/03:00am 10.3 0.9 4.2 66 2.7 W 43 57 23 31 1019.2 1019.2 0.4
19/02:30am 10.4 1.0 4.6 67 2.6 W 43 56 23 30 1019.1 - 0.4
19/02:16am 10.2 0.8 4.3 67 2.6 W 43 61 23 33 1019.2 - 0.4
19/02:00am 10.2 0.3 4.6 68 2.5 W 46 59 25 32 1019.4 - 0.4
19/01:30am 10.2 0.3 4.6 68 2.5 W 46 57 25 31 1019.5 - 0.4
19/01:00am 10.3 0.8 5.0 69 2.4 W 44 57 24 31 1019.8 - 0.4
19/12:30am 10.4 0.9 5.1 69 2.4 W 44 56 24 30 1019.7 - 0.4
19/12:00am 10.7 -0.2 5.4 70 2.4 W 52 65 28 35 1020.0 1019.9 0.4
 
Date/Time
EST
Temp
°C
App
Temp
°C
Dew
Point
Rel
Hum
%
Delta-T
°C
Wind Press
QNH
hPa
Press
MSL
hPa
Rain
since 9 am
mm
Dir
 
Spd
km/h
Gust
km/h
Spd
kts
Gust
kts
18/11:30pm 10.8 0.3 5.8 71 2.3 W 50 61 27 33 1019.7 - 0.4
18/11:00pm 10.9 1.0 6.4 74 2.1 W 48 59 26 32 1019.7 - 0.4
18/10:30pm 10.9 1.3 6.4 74 2.1 W 46 57 25 31 1019.6 - 0.4
18/10:00pm 10.7 2.5 6.7 76 1.9 W 39 54 21 29 1019.7 - 0.4
18/09:30pm 10.9 3.0 6.2 73 2.2 W 37 46 20 25 1019.9 - 0.4
18/09:00pm 10.9 2.9 5.7 70 2.4 W 37 44 20 24 1019.8 1019.8 0.4
18/08:30pm 10.9 3.0 6.2 73 2.2 W 37 46 20 25 1019.8 - 0.4
18/08:00pm 11.2 3.5 5.5 68 2.6 W 35 43 19 23 1019.8 - 0.4
18/07:30pm 11.6 3.2 5.5 66 2.8 WSW 39 52 21 28 1019.5 - 0.4
18/07:00pm 11.7 2.9 5.7 66 2.8 WSW 41 50 22 27 1019.3 - 0.4
18/06:30pm 11.7 2.6 5.7 66 2.8 WSW 43 54 23 29 1019.3 - 0.4
18/06:00pm 11.9 2.2 5.9 66 2.8 WSW 46 59 25 32 1018.9 1018.9 0.4
18/05:30pm 12.5 3.1 5.4 62 3.3 WSW 44 56 24 30 1018.5 - 0.4
18/05:00pm 13.0 2.3 6.5 64 3.1 WSW 52 65 28 35 1018.2 - 0.4
18/04:30pm 13.3 3.2 5.9 61 3.5 SW 48 61 26 33 1017.9 - 0.4
18/04:00pm 13.2 2.1 4.4 55 4.0 SW 52 65 28 35 1017.7 - 0.4
18/03:30pm 13.3 1.2 3.2 50 4.5 WSW 56 69 30 37 1017.6 - 0.4
18/03:00pm 13.0 3.0 6.0 62 3.3 WSW 48 59 26 32 1017.7 1017.7 0.4
18/02:35pm 13.5 2.7 5.9 60 3.6 WSW 52 76 28 41 1017.4 - 0.4
18/02:30pm 13.5 2.5 5.1 57 3.9 WSW 52 69 28 37 1017.4 - 0.4
18/02:00pm 13.5 1.7 5.6 59 3.7 SW 57 69 31 37 1017.3 - 0.4
18/01:30pm 12.0 0.3 6.0 66 2.8 SW 57 76 31 41 1017.4 - 0.4
18/01:25pm 12.9 1.4 6.1 63 3.2 SW 56 76 30 41 1017.2 - 0.4
18/01:00pm 13.5 4.1 5.6 59 3.7 WSW 44 57 24 31 1017.2 - 0.4
18/12:30pm 13.2 2.9 6.7 64 3.1 WSW 50 63 27 34 1017.1 - 0.4
18/12:00pm 12.1 1.7 7.6 74 2.2 SW 52 69 28 37 1017.3 1017.3 0.2
18/11:41am 12.2 1.9 6.5 68 2.7 SW 50 72 27 39 1017.2 - 0.0
18/11:30am 12.5 1.4 6.4 66 2.9 WSW 54 67 29 36 1017.2 - 0.0
18/11:15am 13.2 3.7 6.5 64 3.2 WSW 46 65 25 35 1017.3 - 0.0
18/11:00am 12.8 2.1 6.5 65 3.0 WSW 52 63 28 34 1017.3 - 0.0
18/10:30am 13.0 3.2 7.2 68 2.8 WSW 48 67 26 36 1017.3 - 0.0
18/10:05am 12.3 2.8 6.6 68 2.7 WSW 46 65 25 35 1017.1 - 0.0
18/10:00am 12.1 2.7 7.3 72 2.3 WSW 46 61 25 33 1017.2 - 0.0
18/09:56am 11.6 2.2 7.0 73 2.2 WSW 46 65 25 35 1017.1 - 0.0
18/09:30am 11.2 1.7 6.5 73 2.2 WSW 46 59 25 32 1017.0 - 0.0
18/09:23am 11.3 1.4 6.4 72 2.3 WSW 48 67 26 36 1016.9 - 0.0
18/09:00am 11.3 1.6 7.3 76 1.9 WSW 48 61 26 33 1016.5 1016.5 1.0
18/08:46am 10.7 0.8 6.7 76 1.9 WSW 48 67 26 36 1016.5 - 1.0
18/08:30am 10.7 -0.4 6.2 74 2.1 WSW 54 65 29 35 1016.5 - 1.0
18/08:00am 10.6 0.1 5.6 71 2.3 WSW 50 65 27 35 1015.9 - 1.0
18/07:30am 10.1 -0.8 5.7 74 2.0 W 52 65 28 35 1015.6 - 1.0
18/07:00am 10.0 -0.1 5.9 75 1.9 W 48 63 26 34 1015.2 - 1.0
18/06:30am 9.8 -1.5 5.4 74 2.0 W 54 65 29 35 1014.5 - 1.0
18/06:00am 9.0 -2.2 5.9 81 1.4 WSW 54 67 29 36 1014.1 1014.2 1.0
18/05:30am 9.5 -1.9 4.8 72 2.1 W 54 63 29 34 1013.5 - 1.0
18/05:00am 9.6 -1.0 5.2 74 2.0 W 50 65 27 35 1013.2 - 1.0
18/04:30am 9.1 -1.5 5.1 76 1.8 W 50 61 27 33 1013.0 - 1.0
18/04:00am 9.2 -1.9 4.5 72 2.1 W 52 67 28 36 1013.0 - 0.8
18/03:32am 9.2 -1.3 3.9 69 2.3 W 48 67 26 36 1012.6 - 0.6
18/03:30am 9.2 -1.3 3.9 69 2.3 W 48 59 26 32 1012.6 - 0.6
18/03:00am 9.0 -3.0 3.7 69 2.3 W 56 69 30 37 1012.6 1012.7 0.6
18/02:30am 9.3 -1.9 3.8 68 2.4 W 52 65 28 35 1012.8 - 0.6
18/02:14am 9.3 -1.6 3.8 68 2.4 W 50 69 27 37 1012.8 - 0.6
18/02:00am 9.1 -1.8 3.6 68 2.4 W 50 61 27 33 1012.8 - 0.6
18/01:33am 9.1 -1.9 4.8 74 1.9 WSW 52 70 28 38 1013.2 - 0.6
18/01:30am 8.9 -2.7 4.1 72 2.1 WSW 54 70 29 38 1013.2 - 0.6
18/01:00am 9.7 -1.1 4.0 67 2.5 W 50 65 27 35 1013.2 - 0.6
18/12:30am 9.3 -0.7 4.1 70 2.3 W 46 70 25 38 1013.4 - 0.6
18/12:02am 9.1 -0.8 4.6 73 2.0 W 46 65 25 35 1013.5 - 0.6
18/12:00am 8.8 -2.0 4.0 72 2.1 W 50 65 27 35 1013.5 1013.4 0.6
 
Date/Time
EST
Temp
°C
App
Temp
°C
Dew
Point
Rel
Hum
%
Delta-T
°C
Wind Press
QNH
hPa
Press
MSL
hPa
Rain
since 9 am
mm
Dir
 
Spd
km/h
Gust
km/h
Spd
kts
Gust
kts
17/11:44pm 9.2 -1.0 5.2 76 1.8 WSW 48 70 26 38 1013.8 - 0.4
17/11:30pm 9.9 -1.0 3.7 65 2.7 W 50 65 27 35 1013.6 - 0.2
17/11:00pm 9.9 -1.0 3.5 64 2.8 W 50 61 27 33 1013.5 - 0.2
17/10:30pm 9.8 0.6 5.6 75 1.9 WSW 43 57 23 31 1013.4 - 0.2
17/10:00pm 10.6 -1.5 4.1 64 2.9 WSW 57 82 31 44 1013.0 - 0.2
17/09:45pm 11.0 -0.4 5.1 67 2.7 WSW 54 80 29 43 1013.0 - 0.2
17/09:30pm 10.9 0.2 4.7 65 2.8 WSW 50 65 27 35 1012.7 - 0.2
17/09:11pm 10.9 1.2 3.9 62 3.1 W 44 63 24 34 1012.8 - 0.2
17/09:00pm 11.1 0.7 4.4 63 3.0 W 48 57 26 31 1012.8 1012.7 0.2
17/08:30pm 11.0 0.0 5.1 67 2.7 WSW 52 65 28 35 1012.2 - 0.2
17/08:13pm 10.8 -0.3 4.6 65 2.8 W 52 70 28 38 1012.2 - 0.2
17/08:00pm 10.6 -0.2 5.8 72 2.2 W 52 65 28 35 1012.2 - 0.2
17/07:30pm 10.8 -0.5 5.6 70 2.4 W 54 67 29 36 1011.8 - 0.2
17/07:05pm 10.5 -2.2 5.0 69 2.5 WSW 61 80 33 43 1011.8 - 0.2
17/07:00pm 10.5 -3.2 5.5 71 2.3 WSW 67 82 36 44 1011.7 - 0.2
17/06:41pm 11.4 -2.6 6.8 73 2.2 WSW 70 96 38 52 1011.2 - 0.2
17/06:36pm 11.7 -0.3 6.4 70 2.5 WSW 59 78 32 42 1011.3 - 0.2
17/06:30pm 11.7 0.2 7.1 73 2.2 WSW 57 74 31 40 1011.2 - 0.2
17/06:00pm 11.3 -1.3 7.4 77 1.9 SW 63 80 34 43 1010.8 1010.8 0.2
17/05:39pm 12.4 -0.6 7.2 70 2.5 SW 65 83 35 45 1010.2 - 0.2
17/05:38pm 12.7 0.1 7.4 70 2.6 SW 63 72 34 39 1010.2 - 0.2
17/05:32pm 12.8 4.7 7.2 69 2.7 WSW 39 57 21 31 1010.4 - 0.2
17/05:30pm 13.0 4.5 7.0 67 2.9 WSW 41 52 22 28 1010.3 - 0.2
17/05:00pm 12.7 2.6 7.4 70 2.6 WSW 50 69 27 37 1009.7 - 0.2
17/04:57pm 12.6 2.4 6.8 68 2.8 WSW 50 69 27 37 1009.6 - 0.2
17/04:30pm 12.4 2.3 8.8 79 1.8 WSW 52 67 28 36 1009.4 - 0.2
17/04:00pm 13.5 2.4 7.8 68 2.8 SW 56 69 30 37 1009.0 - 0.0
17/03:30pm 13.4 3.9 8.2 71 2.6 SW 48 61 26 33 1008.6 - 0.0
17/03:00pm 13.8 2.1 9.5 75 2.2 SW 61 76 33 41 1008.0 1008.0 0.0
17/02:30pm 15.0 4.7 8.0 63 3.5 SW 52 65 28 35 1007.8 - 0.0
17/02:00pm 15.0 4.6 7.6 61 3.7 SW 52 61 28 33 1007.6 - 0.0
17/01:30pm 15.1 5.4 7.7 61 3.7 SW 48 57 26 31 1007.6 - 0.0
17/01:00pm 15.6 8.1 8.1 61 3.8 SW 37 50 20 27 1007.9 - 0.0
17/12:43pm 15.2 6.6 8.0 62 3.6 SW 43 52 23 28 1007.9 - 0.0
17/12:30pm 16.9 10.0 6.3 49 5.2 W 32 43 17 23 1007.8 - 0.0
17/12:00pm 16.1 8.3 4.9 47 5.3 W 35 46 19 25 1008.3 1008.3 0.0
17/11:30am 15.5 7.8 5.4 51 4.8 WSW 35 48 19 26 1008.6 - 0.0
17/11:00am 15.8 6.0 5.3 49 5.0 WSW 46 56 25 30 1008.9 - 0.0
17/10:30am 15.4 6.6 5.6 52 4.7 WSW 41 50 22 27 1009.1 - 0.0
17/10:09am 14.3 5.0 5.2 54 4.3 WSW 43 61 23 33 1009.3 - 0.0
17/10:00am 14.7 7.1 5.9 55 4.2 WSW 35 50 19 27 1009.5 - 0.0
17/09:30am 14.1 6.8 7.2 63 3.4 WSW 35 43 19 23 1009.6 - 0.0
17/09:00am 13.5 4.4 6.7 63 3.3 W 44 54 24 29 1009.8 1009.8 2.0
17/08:30am 13.4 5.8 7.5 67 2.9 WSW 37 50 20 27 1010.0 - 2.0
17/08:00am 12.5 4.2 7.6 72 2.4 W 41 54 22 29 1010.0 - 2.0

Other Formats:

Comma delimited format used in spreadsheet applications
http://www.bom.gov.au/fwo/IDN60801/IDN60801.94933.axf

JavaScript Object Notation format (JSON) in row-major order
http://www.bom.gov.au/fwo/IDN60801/IDN60801.94933.json